Impacts TAF Board
For situational awareness. Not to be used for flight planning purposes.
IDs:

KMCB - McComb/Lewis Fld, MS, US

Issued at 1329 UTC 15 Oct 2018
Updated at 1443 UTC 15 Oct 2018
Potential Impact None Slight Moderate High
Time<<16/03Z 16/04Z 16/05Z 16/06Z 16/07Z 16/08Z 16/09Z 16/10Z 16/11Z 16/12Z 16/13Z 16/14Z 16/15Z>>
Type PRVL PRVL PRVL PRVL PRVL PRVL PRVL PRVL PRVL
VIS >6 >6 >6 >6 5 5 5 5 5
CIG 40 25 25 25 8 8 8 8 8
Cover OVC OVC OVC OVC BKN BKN BKN BKN BKN
FltCat VFR MVFR MVFR MVFR IFR IFR IFR IFR IFR
WX -- VCSH VCSH VCSH BR BR BR BR BR
WDir 30 20 20 20 VRB VRB VRB VRB VRB
WSpd 4 5 5 5 4 4 4 4 4
WGst -- -- -- -- -- -- -- -- --
Raw TAF
KMCB 151329Z 1513/1612 12003KT 4SM BR SCT012 BKN019 BKN024
  FM151430 14003KT P6SM SCT018 BKN025
  FM151800 24004KT P6SM VCSH BKN025 BKN070
  FM152100 03004KT P6SM BKN040 OVC080
  FM160400 02005KT P6SM VCSH BKN025 OVC030
  FM160700 VRB04KT 5SM BR BKN008


METAR Board
Radar Display
Forecast Discussion
For situational awareness. Not to be used for flight planning purposes.